sensor_id;sensor_type;location;lat;lon;timestamp;pressure;altitude;pressure_sealevel;temperature;humidity
29383;BME280;16365;51.598;7.668;2022-08-19T00:01:58;100631.25;;;25.82;46.63
29383;BME280;16365;51.598;7.668;2022-08-19T00:04:29;100636.97;;;25.79;46.53
29383;BME280;16365;51.598;7.668;2022-08-19T00:06:56;100637.44;;;25.77;46.62
29383;BME280;16365;51.598;7.668;2022-08-19T00:09:23;100645.19;;;25.73;46.61
29383;BME280;16365;51.598;7.668;2022-08-19T00:11:51;100646.81;;;25.71;46.36
29383;BME280;16365;51.598;7.668;2022-08-19T00:14:19;100655.78;;;25.69;46.80
29383;BME280;16365;51.598;7.668;2022-08-19T00:16:47;100656.22;;;25.68;46.66
29383;BME280;16365;51.598;7.668;2022-08-19T00:19:15;100650.16;;;25.66;46.71
29383;BME280;16365;51.598;7.668;2022-08-19T00:21:42;100644.53;;;25.62;46.69
29383;BME280;16365;51.598;7.668;2022-08-19T00:24:11;100656.78;;;25.59;46.85
29383;BME280;16365;51.598;7.668;2022-08-19T00:26:39;100643.84;;;25.58;46.65
29383;BME280;16365;51.598;7.668;2022-08-19T00:29:08;100653.22;;;25.55;46.96
29383;BME280;16365;51.598;7.668;2022-08-19T00:31:36;100645.94;;;25.54;46.74
29383;BME280;16365;51.598;7.668;2022-08-19T00:34:03;100654.06;;;25.52;46.98
29383;BME280;16365;51.598;7.668;2022-08-19T00:36:30;100643.94;;;25.51;46.91
29383;BME280;16365;51.598;7.668;2022-08-19T00:38:59;100650.06;;;25.49;46.74
29383;BME280;16365;51.598;7.668;2022-08-19T00:41:26;100651.72;;;25.47;47.18
29383;BME280;16365;51.598;7.668;2022-08-19T00:44:26;100647.78;;;25.41;47.37
29383;BME280;16365;51.598;7.668;2022-08-19T00:46:55;100640.84;;;25.42;47.12
29383;BME280;16365;51.598;7.668;2022-08-19T00:49:48;100639.38;;;25.33;47.67
29383;BME280;16365;51.598;7.668;2022-08-19T00:52:29;100641.84;;;25.31;48.18
29383;BME280;16365;51.598;7.668;2022-08-19T00:54:59;100639.00;;;25.31;47.28
29383;BME280;16365;51.598;7.668;2022-08-19T00:57:32;100639.06;;;25.28;47.39
29383;BME280;16365;51.598;7.668;2022-08-19T01:00:00;100636.22;;;25.28;47.12
29383;BME280;16365;51.598;7.668;2022-08-19T01:02:30;100638.69;;;25.26;47.29
29383;BME280;16365;51.598;7.668;2022-08-19T01:05:01;100639.13;;;25.24;47.45
29383;BME280;16365;51.598;7.668;2022-08-19T01:07:28;100638.75;;;25.22;47.31
29383;BME280;16365;51.598;7.668;2022-08-19T01:10:05;100633.13;;;25.19;47.31
29383;BME280;16365;51.598;7.668;2022-08-19T01:12:32;100636.41;;;25.17;47.27
29383;BME280;16365;51.598;7.668;2022-08-19T01:14:59;100634.41;;;25.14;47.50
29383;BME280;16365;51.598;7.668;2022-08-19T01:17:27;100640.97;;;25.11;47.30
29383;BME280;16365;51.598;7.668;2022-08-19T01:19:54;100646.25;;;25.09;47.55
29383;BME280;16365;51.598;7.668;2022-08-19T01:24:58;100647.94;;;25.03;47.64
29383;BME280;16365;51.598;7.668;2022-08-19T01:27:25;100643.94;;;25.00;47.57
29383;BME280;16365;51.598;7.668;2022-08-19T01:29:55;100646.41;;;24.98;47.48
29383;BME280;16365;51.598;7.668;2022-08-19T01:32:22;100641.59;;;24.95;47.95
29383;BME280;16365;51.598;7.668;2022-08-19T01:34:59;100648.91;;;24.93;47.61
29383;BME280;16365;51.598;7.668;2022-08-19T01:37:29;100646.94;;;24.90;47.87
29383;BME280;16365;51.598;7.668;2022-08-19T01:39:56;100637.69;;;24.85;47.78
29383;BME280;16365;51.598;7.668;2022-08-19T01:42:23;100640.94;;;24.84;47.72
29383;BME280;16365;51.598;7.668;2022-08-19T01:44:56;100632.88;;;24.82;48.10
29383;BME280;16365;51.598;7.668;2022-08-19T01:47:23;100626.84;;;24.80;47.70
29383;BME280;16365;51.598;7.668;2022-08-19T01:49:49;100623.59;;;24.78;47.85
29383;BME280;16365;51.598;7.668;2022-08-19T01:52:16;100625.28;;;24.76;47.83
29383;BME280;16365;51.598;7.668;2022-08-19T01:54:42;100622.84;;;24.74;47.89
29383;BME280;16365;51.598;7.668;2022-08-19T01:57:12;100623.72;;;24.71;48.24
29383;BME280;16365;51.598;7.668;2022-08-19T01:59:42;100617.22;;;24.71;48.45
29383;BME280;16365;51.598;7.668;2022-08-19T02:02:10;100620.88;;;24.71;48.26
29383;BME280;16365;51.598;7.668;2022-08-19T02:04:37;100622.09;;;24.70;48.10
29383;BME280;16365;51.598;7.668;2022-08-19T02:07:05;100614.47;;;24.67;48.19
29383;BME280;16365;51.598;7.668;2022-08-19T02:09:32;100613.66;;;24.67;48.22
29383;BME280;16365;51.598;7.668;2022-08-19T02:11:58;100603.53;;;24.66;48.18
29383;BME280;16365;51.598;7.668;2022-08-19T02:14:25;100609.63;;;24.64;48.00
29383;BME280;16365;51.598;7.668;2022-08-19T02:16:51;100615.31;;;24.64;48.36
29383;BME280;16365;51.598;7.668;2022-08-19T02:19:18;100612.09;;;24.62;48.19
29383;BME280;16365;51.598;7.668;2022-08-19T02:21:44;100616.16;;;24.61;48.32
29383;BME280;16365;51.598;7.668;2022-08-19T02:24:11;100618.19;;;24.60;48.31
29383;BME280;16365;51.598;7.668;2022-08-19T02:26:38;100629.16;;;24.58;48.30
29383;BME280;16365;51.598;7.668;2022-08-19T02:29:05;100625.53;;;24.58;48.20
29383;BME280;16365;51.598;7.668;2022-08-19T02:31:31;100628.38;;;24.58;48.31
29383;BME280;16365;51.598;7.668;2022-08-19T02:33:59;100623.13;;;24.56;48.44
29383;BME280;16365;51.598;7.668;2022-08-19T02:36:26;100623.13;;;24.56;48.58
29383;BME280;16365;51.598;7.668;2022-08-19T02:38:55;100620.28;;;24.56;48.45
29383;BME280;16365;51.598;7.668;2022-08-19T02:41:25;100614.22;;;24.54;48.71
29383;BME280;16365;51.598;7.668;2022-08-19T02:43:54;100609.38;;;24.55;48.66
29383;BME280;16365;51.598;7.668;2022-08-19T02:46:41;100603.69;;;24.55;48.58
29383;BME280;16365;51.598;7.668;2022-08-19T02:49:08;100604.13;;;24.53;48.59
29383;BME280;16365;51.598;7.668;2022-08-19T02:51:37;100601.72;;;24.52;48.66
29383;BME280;16365;51.598;7.668;2022-08-19T02:54:05;100600.91;;;24.51;48.75
29383;BME280;16365;51.598;7.668;2022-08-19T02:56:35;100598.06;;;24.51;48.86
29383;BME280;16365;51.598;7.668;2022-08-19T02:59:03;100609.41;;;24.51;48.62
29383;BME280;16365;51.598;7.668;2022-08-19T03:01:35;100616.69;;;24.52;48.63
29383;BME280;16365;51.598;7.668;2022-08-19T03:04:03;100622.78;;;24.51;48.62
29383;BME280;16365;51.598;7.668;2022-08-19T03:06:31;100621.56;;;24.52;48.76
29383;BME280;16365;51.598;7.668;2022-08-19T03:08:57;100615.06;;;24.51;48.73
29383;BME280;16365;51.598;7.668;2022-08-19T03:11:27;100620.75;;;24.51;48.91
29383;BME280;16365;51.598;7.668;2022-08-19T03:13:54;100616.69;;;24.52;48.78
29383;BME280;16365;51.598;7.668;2022-08-19T03:16:23;100614.28;;;24.51;49.31
29383;BME280;16365;51.598;7.668;2022-08-19T03:18:51;100615.91;;;24.52;49.01
29383;BME280;16365;51.598;7.668;2022-08-19T03:21:24;100628.88;;;24.49;49.02
29383;BME280;16365;51.598;7.668;2022-08-19T03:23:56;100622.41;;;24.49;49.08
29383;BME280;16365;51.598;7.668;2022-08-19T03:26:23;100618.34;;;24.50;48.61
29383;BME280;16365;51.598;7.668;2022-08-19T03:28:50;100610.72;;;24.47;48.55
29383;BME280;16365;51.598;7.668;2022-08-19T03:31:26;100617.22;;;24.44;48.59
29383;BME280;16365;51.598;7.668;2022-08-19T03:34:20;100616.47;;;24.40;48.88
29383;BME280;16365;51.598;7.668;2022-08-19T03:36:47;100623.38;;;24.39;48.77
29383;BME280;16365;51.598;7.668;2022-08-19T03:39:15;100616.09;;;24.38;48.79
29383;BME280;16365;51.598;7.668;2022-08-19T03:41:44;100627.84;;;24.36;49.02
29383;BME280;16365;51.598;7.668;2022-08-19T03:44:16;100618.94;;;24.38;49.06
29383;BME280;16365;51.598;7.668;2022-08-19T03:46:47;100626.63;;;24.37;49.10
29383;BME280;16365;51.598;7.668;2022-08-19T03:49:15;100627.44;;;24.38;48.95
29383;BME280;16365;51.598;7.668;2022-08-19T03:51:45;100632.66;;;24.39;49.03
29383;BME280;16365;51.598;7.668;2022-08-19T03:54:14;100626.19;;;24.39;49.05
29383;BME280;16365;51.598;7.668;2022-08-19T03:56:42;100627.78;;;24.40;49.07
29383;BME280;16365;51.598;7.668;2022-08-19T03:59:11;100628.59;;;24.40;49.03
29383;BME280;16365;51.598;7.668;2022-08-19T04:01:40;100628.16;;;24.42;48.98
29383;BME280;16365;51.598;7.668;2022-08-19T04:04:07;100629.00;;;24.42;48.90
29383;BME280;16365;51.598;7.668;2022-08-19T04:06:36;100641.13;;;24.43;48.91
29383;BME280;16365;51.598;7.668;2022-08-19T04:09:07;100636.66;;;24.42;48.75
29383;BME280;16365;51.598;7.668;2022-08-19T04:11:38;100639.94;;;24.40;49.20
29383;BME280;16365;51.598;7.668;2022-08-19T04:14:12;100639.13;;;24.40;48.98
29383;BME280;16365;51.598;7.668;2022-08-19T04:16:39;100644.00;;;24.39;48.81
29383;BME280;16365;51.598;7.668;2022-08-19T04:19:06;100642.41;;;24.38;48.79
29383;BME280;16365;51.598;7.668;2022-08-19T04:21:34;100642.81;;;24.36;48.65
29383;BME280;16365;51.598;7.668;2022-08-19T04:24:01;100639.16;;;24.36;48.96
29383;BME280;16365;51.598;7.668;2022-08-19T04:26:34;100641.22;;;24.32;49.31
29383;BME280;16365;51.598;7.668;2022-08-19T04:29:06;100645.69;;;24.33;48.96
29383;BME280;16365;51.598;7.668;2022-08-19T04:31:38;100633.53;;;24.32;48.88
29383;BME280;16365;51.598;7.668;2022-08-19T04:34:07;100642.44;;;24.31;49.03
29383;BME280;16365;51.598;7.668;2022-08-19T04:36:36;100638.00;;;24.30;49.15
29383;BME280;16365;51.598;7.668;2022-08-19T04:39:06;100649.78;;;24.28;49.22
29383;BME280;16365;51.598;7.668;2022-08-19T04:41:33;100641.69;;;24.27;48.89
29383;BME280;16365;51.598;7.668;2022-08-19T04:44:19;100648.22;;;24.24;48.95
29383;BME280;16365;51.598;7.668;2022-08-19T04:46:47;100654.28;;;24.22;49.20
29383;BME280;16365;51.598;7.668;2022-08-19T04:49:19;100658.34;;;24.21;49.14
29383;BME280;16365;51.598;7.668;2022-08-19T04:51:49;100651.88;;;24.21;49.19
29383;BME280;16365;51.598;7.668;2022-08-19T04:54:17;100655.50;;;24.21;49.28
29383;BME280;16365;51.598;7.668;2022-08-19T04:57:03;100658.75;;;24.23;49.01
29383;BME280;16365;51.598;7.668;2022-08-19T04:59:34;100664.41;;;24.23;49.03
29383;BME280;16365;51.598;7.668;2022-08-19T05:02:01;100662.38;;;24.24;49.04
29383;BME280;16365;51.598;7.668;2022-08-19T05:04:28;100673.28;;;24.25;48.96
29383;BME280;16365;51.598;7.668;2022-08-19T05:06:58;100674.88;;;24.26;48.96
29383;BME280;16365;51.598;7.668;2022-08-19T05:09:28;100669.66;;;24.25;49.08
29383;BME280;16365;51.598;7.668;2022-08-19T05:12:14;100666.38;;;24.26;49.03
29383;BME280;16365;51.598;7.668;2022-08-19T05:14:41;100669.66;;;24.25;49.02
29383;BME280;16365;51.598;7.668;2022-08-19T05:17:08;100670.09;;;24.23;49.00
29383;BME280;16365;51.598;7.668;2022-08-19T05:19:54;100666.44;;;24.23;49.17
29383;BME280;16365;51.598;7.668;2022-08-19T05:22:39;100657.13;;;24.22;49.22
29383;BME280;16365;51.598;7.668;2022-08-19T05:25:09;100661.19;;;24.21;49.25
29383;BME280;16365;51.598;7.668;2022-08-19T05:27:40;100659.59;;;24.20;49.18
29383;BME280;16365;51.598;7.668;2022-08-19T05:30:07;100659.59;;;24.20;49.26
29383;BME280;16365;51.598;7.668;2022-08-19T05:32:34;100673.31;;;24.22;49.37
29383;BME280;16365;51.598;7.668;2022-08-19T05:35:00;100676.16;;;24.22;49.53
29383;BME280;16365;51.598;7.668;2022-08-19T05:37:27;100679.38;;;24.24;49.42
29383;BME280;16365;51.598;7.668;2022-08-19T05:39:54;100683.38;;;24.26;49.75
29383;BME280;16365;51.598;7.668;2022-08-19T05:42:22;100676.44;;;24.31;49.88
29383;BME280;16365;51.598;7.668;2022-08-19T05:44:50;100684.50;;;24.36;49.88
29383;BME280;16365;51.598;7.668;2022-08-19T05:47:17;100676.34;;;24.42;49.64
29383;BME280;16365;51.598;7.668;2022-08-19T05:49:46;100681.56;;;24.47;49.79
29383;BME280;16365;51.598;7.668;2022-08-19T05:52:14;100682.25;;;24.54;49.59
29383;BME280;16365;51.598;7.668;2022-08-19T05:54:51;100680.56;;;24.60;49.33
29383;BME280;16365;51.598;7.668;2022-08-19T05:57:18;100684.16;;;24.65;49.33
29383;BME280;16365;51.598;7.668;2022-08-19T05:59:45;100682.50;;;24.67;49.46
29383;BME280;16365;51.598;7.668;2022-08-19T06:02:24;100677.16;;;24.73;49.08
29383;BME280;16365;51.598;7.668;2022-08-19T06:04:51;100671.44;;;24.76;49.33
29383;BME280;16365;51.598;7.668;2022-08-19T06:07:17;100676.25;;;24.79;49.17
29383;BME280;16365;51.598;7.668;2022-08-19T06:09:45;100661.59;;;24.84;49.25
29383;BME280;16365;51.598;7.668;2022-08-19T06:12:26;100672.84;;;24.92;49.18
29383;BME280;16365;51.598;7.668;2022-08-19T06:14:57;100665.44;;;24.98;49.11
29383;BME280;16365;51.598;7.668;2022-08-19T06:17:28;100660.91;;;25.04;49.16
29383;BME280;16365;51.598;7.668;2022-08-19T06:19:57;100665.72;;;25.10;49.19
29383;BME280;16365;51.598;7.668;2022-08-19T06:22:25;100662.38;;;25.16;48.80
29383;BME280;16365;51.598;7.668;2022-08-19T06:24:51;100662.69;;;25.21;48.87
29383;BME280;16365;51.598;7.668;2022-08-19T06:27:20;100670.28;;;25.28;48.99
29383;BME280;16365;51.598;7.668;2022-08-19T06:29:47;100672.63;;;25.33;48.53
29383;BME280;16365;51.598;7.668;2022-08-19T06:32:15;100677.81;;;25.38;48.94
29383;BME280;16365;51.598;7.668;2022-08-19T06:34:42;100669.63;;;25.44;48.94
29383;BME280;16365;51.598;7.668;2022-08-19T06:37:10;100672.38;;;25.47;48.91
29383;BME280;16365;51.598;7.668;2022-08-19T06:39:39;100673.94;;;25.52;48.46
29383;BME280;16365;51.598;7.668;2022-08-19T06:42:06;100677.53;;;25.56;48.31
29383;BME280;16365;51.598;7.668;2022-08-19T06:44:38;100671.78;;;25.59;48.24
29383;BME280;16365;51.598;7.668;2022-08-19T06:47:14;100666.91;;;25.60;48.62
29383;BME280;16365;51.598;7.668;2022-08-19T06:49:53;100661.97;;;25.64;48.10
29383;BME280;16365;51.598;7.668;2022-08-19T06:52:26;100664.75;;;25.68;48.56
29383;BME280;16365;51.598;7.668;2022-08-19T06:54:53;100668.31;;;25.72;48.48
29383;BME280;16365;51.598;7.668;2022-08-19T06:57:25;100667.84;;;25.77;48.33
29383;BME280;16365;51.598;7.668;2022-08-19T06:59:52;100662.91;;;25.81;47.77
29383;BME280;16365;51.598;7.668;2022-08-19T07:02:19;100663.28;;;25.83;48.12
29383;BME280;16365;51.598;7.668;2022-08-19T07:04:50;100663.19;;;25.86;48.16
29383;BME280;16365;51.598;7.668;2022-08-19T07:07:19;100668.03;;;25.89;47.95
29383;BME280;16365;51.598;7.668;2022-08-19T07:09:48;100670.81;;;25.93;48.16
29383;BME280;16365;51.598;7.668;2022-08-19T07:12:30;100664.63;;;25.98;48.02
29383;BME280;16365;51.598;7.668;2022-08-19T07:15:04;100671.03;;;26.02;48.41
29383;BME280;16365;51.598;7.668;2022-08-19T07:17:31;100670.88;;;26.09;48.42
29383;BME280;16365;51.598;7.668;2022-08-19T07:20:00;100669.94;;;26.16;48.16
29383;BME280;16365;51.598;7.668;2022-08-19T07:22:30;100671.03;;;26.22;48.15
29383;BME280;16365;51.598;7.668;2022-08-19T07:24:57;100673.31;;;26.31;48.19
29383;BME280;16365;51.598;7.668;2022-08-19T07:27:24;100676.00;;;26.38;48.08
29383;BME280;16365;51.598;7.668;2022-08-19T07:29:52;100688.84;;;26.46;48.52
29383;BME280;16365;51.598;7.668;2022-08-19T07:32:24;100694.66;;;26.59;48.29
29383;BME280;16365;51.598;7.668;2022-08-19T07:34:54;100696.78;;;26.75;48.83
29383;BME280;16365;51.598;7.668;2022-08-19T07:37:23;100689.00;;;26.95;48.85
29383;BME280;16365;51.598;7.668;2022-08-19T07:39:56;100690.41;;;27.23;49.20
29383;BME280;16365;51.598;7.668;2022-08-19T07:42:22;100686.41;;;27.53;48.62
29383;BME280;16365;51.598;7.668;2022-08-19T07:44:49;100696.88;;;27.89;48.76
29383;BME280;16365;51.598;7.668;2022-08-19T07:47:16;100697.06;;;28.27;47.98
29383;BME280;16365;51.598;7.668;2022-08-19T07:50:05;100697.00;;;28.73;47.31
29383;BME280;16365;51.598;7.668;2022-08-19T07:52:33;100697.16;;;29.07;46.22
29383;BME280;16365;51.598;7.668;2022-08-19T07:55:03;100699.91;;;29.36;45.37
29383;BME280;16365;51.598;7.668;2022-08-19T07:57:30;100701.84;;;29.65;44.91
29383;BME280;16365;51.598;7.668;2022-08-19T07:59:58;100705.09;;;29.89;44.45
29383;BME280;16365;51.598;7.668;2022-08-19T08:02:30;100710.03;;;30.10;44.16
29383;BME280;16365;51.598;7.668;2022-08-19T08:04:56;100721.53;;;30.32;43.84
29383;BME280;16365;51.598;7.668;2022-08-19T08:07:41;100712.94;;;30.54;43.83
29383;BME280;16365;51.598;7.668;2022-08-19T08:10:26;100717.59;;;30.83;43.86
29383;BME280;16365;51.598;7.668;2022-08-19T08:12:53;100720.13;;;31.12;43.45
29383;BME280;16365;51.598;7.668;2022-08-19T08:15:35;100711.38;;;31.46;42.41
29383;BME280;16365;51.598;7.668;2022-08-19T08:18:09;100713.69;;;31.79;42.04
29383;BME280;16365;51.598;7.668;2022-08-19T08:20:36;100713.13;;;32.12;41.76
29383;BME280;16365;51.598;7.668;2022-08-19T08:23:12;100713.59;;;32.47;40.90
29383;BME280;16365;51.598;7.668;2022-08-19T08:25:57;100712.13;;;32.79;40.34
29383;BME280;16365;51.598;7.668;2022-08-19T08:28:25;100709.94;;;33.07;39.87
29383;BME280;16365;51.598;7.668;2022-08-19T08:30:56;100717.97;;;33.36;39.33
29383;BME280;16365;51.598;7.668;2022-08-19T08:33:26;100713.91;;;33.61;37.77
29383;BME280;16365;51.598;7.668;2022-08-19T08:36:10;100713.56;;;33.83;37.11
29383;BME280;16365;51.598;7.668;2022-08-19T08:38:38;100720.03;;;34.02;37.14
29383;BME280;16365;51.598;7.668;2022-08-19T08:43:55;100725.91;;;34.22;35.75
29383;BME280;16365;51.598;7.668;2022-08-19T09:16:39;100719.47;;;33.32;35.46
29383;BME280;16365;51.598;7.668;2022-08-19T09:19:07;100720.09;;;33.26;34.77
29383;BME280;16365;51.598;7.668;2022-08-19T09:21:34;100719.97;;;33.21;35.12
29383;BME280;16365;51.598;7.668;2022-08-19T09:24:02;100723.50;;;33.16;34.99
29383;BME280;16365;51.598;7.668;2022-08-19T09:26:29;100721.59;;;33.13;35.24
29383;BME280;16365;51.598;7.668;2022-08-19T09:29:16;100702.94;;;33.08;35.81
29383;BME280;16365;51.598;7.668;2022-08-19T09:31:43;100704.69;;;33.06;35.20
29383;BME280;16365;51.598;7.668;2022-08-19T09:34:09;100712.22;;;33.03;35.17
29383;BME280;16365;51.598;7.668;2022-08-19T09:36:48;100707.75;;;33.02;35.25
29383;BME280;16365;51.598;7.668;2022-08-19T09:39:20;100699.63;;;33.00;35.05
29383;BME280;16365;51.598;7.668;2022-08-19T09:41:47;100702.66;;;32.97;34.88
29383;BME280;16365;51.598;7.668;2022-08-19T09:44:16;100702.53;;;32.91;35.09
29383;BME280;16365;51.598;7.668;2022-08-19T09:46:44;100702.06;;;32.84;34.77
29383;BME280;16365;51.598;7.668;2022-08-19T09:49:13;100704.63;;;32.72;34.54
29383;BME280;16365;51.598;7.668;2022-08-19T09:51:39;100694.94;;;32.61;34.42
29383;BME280;16365;51.598;7.668;2022-08-19T09:54:06;100694.16;;;32.51;34.46
29383;BME280;16365;51.598;7.668;2022-08-19T09:56:36;100696.06;;;32.45;33.98
29383;BME280;16365;51.598;7.668;2022-08-19T09:59:03;100697.50;;;32.40;33.96
29383;BME280;16365;51.598;7.668;2022-08-19T10:01:31;100704.50;;;32.39;34.50
29383;BME280;16365;51.598;7.668;2022-08-19T10:04:00;100700.38;;;32.40;33.92
29383;BME280;16365;51.598;7.668;2022-08-19T10:06:35;100704.50;;;32.39;34.23
29383;BME280;16365;51.598;7.668;2022-08-19T10:09:12;100702.91;;;32.38;34.05
29383;BME280;16365;51.598;7.668;2022-08-19T10:11:43;100699.38;;;32.34;34.25
29383;BME280;16365;51.598;7.668;2022-08-19T10:14:20;100694.31;;;32.38;34.67
29383;BME280;16365;51.598;7.668;2022-08-19T10:16:49;100699.25;;;32.38;34.98
29383;BME280;16365;51.598;7.668;2022-08-19T10:19:16;100695.44;;;32.41;34.61
29383;BME280;16365;51.598;7.668;2022-08-19T10:21:51;100695.44;;;32.41;34.42
29383;BME280;16365;51.598;7.668;2022-08-19T10:24:18;100694.66;;;32.40;34.83
29383;BME280;16365;51.598;7.668;2022-08-19T10:26:46;100701.47;;;32.43;35.78
29383;BME280;16365;51.598;7.668;2022-08-19T10:29:24;100693.50;;;32.47;34.57
29383;BME280;16365;51.598;7.668;2022-08-19T10:32:03;100690.94;;;32.49;33.70
29383;BME280;16365;51.598;7.668;2022-08-19T10:34:36;100679.16;;;32.56;33.49
29383;BME280;16365;51.598;7.668;2022-08-19T10:37:13;100686.16;;;32.64;33.69
29383;BME280;16365;51.598;7.668;2022-08-19T10:39:45;100686.28;;;32.70;33.30
29383;BME280;16365;51.598;7.668;2022-08-19T10:42:14;100690.88;;;32.77;33.11
29383;BME280;16365;51.598;7.668;2022-08-19T10:44:42;100680.03;;;32.81;32.97
29383;BME280;16365;51.598;7.668;2022-08-19T10:47:09;100673.78;;;32.82;33.02
29383;BME280;16365;51.598;7.668;2022-08-19T10:49:50;100684.31;;;32.85;32.96
29383;BME280;16365;51.598;7.668;2022-08-19T10:52:41;100682.09;;;32.89;32.91
29383;BME280;16365;51.598;7.668;2022-08-19T10:55:17;100677.47;;;32.92;32.53
29383;BME280;16365;51.598;7.668;2022-08-19T10:58:02;100682.53;;;32.97;32.67
29383;BME280;16365;51.598;7.668;2022-08-19T11:00:29;100674.25;;;32.99;32.60
29383;BME280;16365;51.598;7.668;2022-08-19T11:02:57;100664.19;;;33.04;32.70
29383;BME280;16365;51.598;7.668;2022-08-19T11:05:24;100680.59;;;33.12;32.85
29383;BME280;16365;51.598;7.668;2022-08-19T11:07:50;100675.28;;;33.20;32.31
29383;BME280;16365;51.598;7.668;2022-08-19T11:10:18;100668.84;;;33.25;32.36
29383;BME280;16365;51.598;7.668;2022-08-19T11:12:47;100663.09;;;33.25;31.78
29383;BME280;16365;51.598;7.668;2022-08-19T11:15:14;100667.28;;;33.24;31.88
29383;BME280;16365;51.598;7.668;2022-08-19T11:17:41;100668.22;;;33.21;32.07
29383;BME280;16365;51.598;7.668;2022-08-19T11:20:14;100673.19;;;33.20;31.17
29383;BME280;16365;51.598;7.668;2022-08-19T11:22:41;100671.72;;;33.25;31.80
29383;BME280;16365;51.598;7.668;2022-08-19T11:25:10;100663.09;;;33.25;31.26
29383;BME280;16365;51.598;7.668;2022-08-19T11:27:41;100672.53;;;33.25;31.15
29383;BME280;16365;51.598;7.668;2022-08-19T11:30:11;100656.56;;;33.24;31.24
29383;BME280;16365;51.598;7.668;2022-08-19T11:32:40;100654.97;;;33.23;30.40
29383;BME280;16365;51.598;7.668;2022-08-19T11:35:14;100652.13;;;33.23;30.40
29383;BME280;16365;51.598;7.668;2022-08-19T11:37:46;100650.03;;;33.24;30.70
29383;BME280;16365;51.598;7.668;2022-08-19T11:40:12;100646.47;;;33.29;30.77
29383;BME280;16365;51.598;7.668;2022-08-19T11:42:39;100643.22;;;33.36;30.30
29383;BME280;16365;51.598;7.668;2022-08-19T11:45:35;100650.38;;;33.50;30.83
29383;BME280;16365;51.598;7.668;2022-08-19T11:48:02;100646.66;;;33.59;30.86
29383;BME280;16365;51.598;7.668;2022-08-19T11:50:29;100645.97;;;33.64;30.60
29383;BME280;16365;51.598;7.668;2022-08-19T11:52:56;100645.97;;;33.64;30.99
29383;BME280;16365;51.598;7.668;2022-08-19T11:55:23;100646.47;;;33.62;30.53
29383;BME280;16365;51.598;7.668;2022-08-19T11:57:49;100650.31;;;33.59;30.47
29383;BME280;16365;51.598;7.668;2022-08-19T12:00:16;100647.63;;;33.56;30.61
29383;BME280;16365;51.598;7.668;2022-08-19T12:02:43;100645.72;;;33.53;30.92
29383;BME280;16365;51.598;7.668;2022-08-19T12:05:09;100643.22;;;33.45;30.82
29383;BME280;16365;51.598;7.668;2022-08-19T12:07:39;100653.47;;;33.37;30.63
29383;BME280;16365;51.598;7.668;2022-08-19T12:10:07;100652.53;;;33.31;30.36
29383;BME280;16365;51.598;7.668;2022-08-19T12:12:34;100649.06;;;33.27;30.26
29383;BME280;16365;51.598;7.668;2022-08-19T12:15:01;100651.00;;;33.21;30.56
29383;BME280;16365;51.598;7.668;2022-08-19T12:17:28;100644.94;;;33.19;30.91
29383;BME280;16365;51.598;7.668;2022-08-19T12:19:57;100645.44;;;33.17;30.46
29383;BME280;16365;51.598;7.668;2022-08-19T12:22:23;100638.59;;;33.15;30.71
29383;BME280;16365;51.598;7.668;2022-08-19T12:24:50;100638.28;;;33.13;30.70
29383;BME280;16365;51.598;7.668;2022-08-19T12:27:18;100640.66;;;33.14;30.72
29383;BME280;16365;51.598;7.668;2022-08-19T12:30:07;100649.28;;;33.14;30.36
29383;BME280;16365;51.598;7.668;2022-08-19T12:32:34;100642.75;;;33.14;30.60
29383;BME280;16365;51.598;7.668;2022-08-19T12:35:00;100639.06;;;33.13;30.59
29383;BME280;16365;51.598;7.668;2022-08-19T12:37:27;100635.88;;;33.11;30.25
29383;BME280;16365;51.598;7.668;2022-08-19T12:39:54;100631.41;;;33.10;29.78
29383;BME280;16365;51.598;7.668;2022-08-19T12:42:20;100625.84;;;33.07;29.95
29383;BME280;16365;51.598;7.668;2022-08-19T12:44:48;100625.84;;;33.07;30.12
29383;BME280;16365;51.598;7.668;2022-08-19T12:47:14;100630.34;;;33.08;30.61
29383;BME280;16365;51.598;7.668;2022-08-19T12:49:41;100628.88;;;33.12;29.52
29383;BME280;16365;51.598;7.668;2022-08-19T12:52:23;100620.06;;;33.16;29.49
29383;BME280;16365;51.598;7.668;2022-08-19T12:54:51;100618.59;;;33.20;29.58
29383;BME280;16365;51.598;7.668;2022-08-19T12:57:24;100626.25;;;33.23;29.63
29383;BME280;16365;51.598;7.668;2022-08-19T13:00:14;100615.53;;;33.24;29.88
29383;BME280;16365;51.598;7.668;2022-08-19T13:02:43;100619.34;;;33.30;29.70
29383;BME280;16365;51.598;7.668;2022-08-19T13:05:16;100613.91;;;33.32;29.12
29383;BME280;16365;51.598;7.668;2022-08-19T13:07:43;100603.50;;;33.35;29.16
29383;BME280;16365;51.598;7.668;2022-08-19T13:10:12;100617.38;;;33.36;29.08
29383;BME280;16365;51.598;7.668;2022-08-19T13:12:39;100615.59;;;33.39;29.46
29383;BME280;16365;51.598;7.668;2022-08-19T13:15:08;100615.91;;;33.41;29.14
29383;BME280;16365;51.598;7.668;2022-08-19T13:17:37;100608.72;;;33.45;29.12
29383;BME280;16365;51.598;7.668;2022-08-19T13:20:05;100608.03;;;33.50;29.12
29383;BME280;16365;51.598;7.668;2022-08-19T13:22:34;100608.97;;;33.57;28.76
29383;BME280;16365;51.598;7.668;2022-08-19T13:25:03;100611.97;;;33.62;28.65
29383;BME280;16365;51.598;7.668;2022-08-19T13:27:31;100607.13;;;33.68;28.73
29383;BME280;16365;51.598;7.668;2022-08-19T13:29:58;100601.19;;;33.72;28.63
29383;BME280;16365;51.598;7.668;2022-08-19T13:32:44;100598.31;;;33.72;28.45
29383;BME280;16365;51.598;7.668;2022-08-19T13:35:29;100592.22;;;33.70;28.91
29383;BME280;16365;51.598;7.668;2022-08-19T13:37:55;100600.28;;;33.66;28.40
29383;BME280;16365;51.598;7.668;2022-08-19T13:40:23;100601.75;;;33.61;28.48
29383;BME280;16365;51.598;7.668;2022-08-19T13:42:54;100597.75;;;33.59;28.32